• Join FlightAware (Why Join?)
  • Login
  • US Flag 
03:13AM EDT


 

Airport Tracker/Info


-or-


 

Live Flight TrackerFlight Track Log ✈ MTN7303 ✈ 29-Apr-2013 ✈ KBWI - KEWR

Flight Track Log - Related Links

Times and Time Zones

All times are in EDT time to prevent confusion due to time zone crossing. See the MTN7303 flight status page for this flight to view local times or setup timezone preferences in your user account.

Time Position Orientation Groundspeed Altitude Reporting Facility
EDT Latitude Longitude Course Direction KTS MPH feet Rate Location/Type
11:07PM 39.1667 -76.6333 21° North 96 110 1,000  Level Potomac TRACON
11:08PM 39.2000 -76.6167 21° North 108 124 1,900 780 Climbing Potomac TRACON
11:09PM 39.2167 -76.6000 38° Northeast 118 136 2,600 600 Climbing Potomac TRACON
11:10PM 39.2500 -76.5833 21° North 114 131 3,200 660 Climbing Potomac TRACON
11:11PM 39.2667 -76.5500 57° Northeast 108 124 4,000 720 Climbing Potomac TRACON
11:12PM 39.2833 -76.5333 38° Northeast 102 117 4,700 480 Climbing Potomac TRACON
11:13PM 39.3000 -76.5000 57° Northeast 108 124 5,000 120 Climbing Potomac TRACON
11:14PM 39.3333 -76.4667 38° Northeast 131 151 5,000  Level Potomac TRACON
11:15PM 39.3667 -76.4333 38° Northeast 146 168 5,000  Level Potomac TRACON
11:16PM 39.3833 -76.3833 67° East 147 169 5,000  Level Potomac TRACON
11:17PM 39.4167 -76.3500 38° Northeast 145 167 5,000  Level Potomac TRACON
11:18PM 39.4500 -76.3167 38° Northeast 143 165 5,000  Level Potomac TRACON
11:19PM 39.4667 -76.2833 57° Northeast 144 166 5,000  Level Potomac TRACON
11:20PM 39.5000 -76.2333 49° Northeast 145 167 5,000  Level Potomac TRACON
11:22PM 39.5500 -76.1667 46° Northeast 148 170 5,000  Level Philadelphia TRACON
11:23PM 39.5833 -76.1167 49° Northeast 151 174 5,000  Level Philadelphia TRACON
11:24PM 39.6167 -76.0833 38° Northeast 154 177 5,000  Level Philadelphia TRACON
11:25PM 39.6500 -76.0500 38° Northeast 153 176 5,000  Level Philadelphia TRACON
11:26PM 39.6833 -76.0000 49° Northeast 151 174 5,000  Level Philadelphia TRACON
11:27PM 39.7000 -75.9667 57° Northeast 150 173 5,000  Level Philadelphia TRACON
11:28PM 39.7333 -75.9333 38° Northeast 151 174 5,000  Level Philadelphia TRACON
11:29PM 39.7667 -75.8833 49° Northeast 150 173 5,000  Level Philadelphia TRACON
11:30PM 39.8000 -75.8333 49° Northeast 151 174 5,000  Level Philadelphia TRACON
11:31PM 39.8167 -75.8000 57° Northeast 153 176 5,000  Level Philadelphia TRACON
11:32PM 39.8500 -75.7667 38° Northeast 152 175 5,000  Level Philadelphia TRACON
11:33PM 39.8833 -75.7167 49° Northeast 154 177 5,000  Level Philadelphia TRACON
11:34PM 39.9000 -75.6833 57° Northeast 154 177 5,000  Level Philadelphia TRACON
11:35PM 39.9333 -75.6500 37° Northeast 148 170 5,000  Level Philadelphia TRACON
11:36PM 39.9500 -75.6000 66° East 149 171 5,000  Level Philadelphia TRACON
11:37PM 39.9667 -75.5500 66° East 150 173 5,000  Level Philadelphia TRACON
11:38PM 40.0000 -75.5000 49° Northeast 152 175 5,000  Level Philadelphia TRACON
11:39PM 40.0167 -75.4500 66° East 149 171 5,000  Level Philadelphia TRACON
11:40PM 40.0333 -75.4000 66° East 150 173 5,000  Level Philadelphia TRACON
11:41PM 40.0667 -75.3500 49° Northeast 153 176 5,000  Level Philadelphia TRACON
11:42PM 40.0833 -75.3000 66° East 152 175 5,000  Level Philadelphia TRACON
11:43PM 40.1000 -75.2500 66° East 155 178 5,000  Level Philadelphia TRACON
11:44PM 40.1167 -75.2167 57° Northeast 154 177 5,000 -60 Level Philadelphia TRACON
11:45PM 40.1333 -75.1667 66° East 152 175 4,900 -60 Descending Philadelphia TRACON
11:46PM 40.1667 -75.1333 37° Northeast 146 168 4,900  Level Philadelphia TRACON
11:47PM 40.1833 -75.0667 72° East 149 171 5,000  Climbing New York TRACON
11:48PM 40.2000 -75.0333 57° Northeast 150 173 5,000  Level New York TRACON
11:49PM 40.2167 -74.9833 66° East 150 173 5,000  Level New York TRACON
11:50PM 40.2500 -74.9500 37° Northeast 158 182 5,000  Level New York TRACON
11:51PM 40.2833 -74.9167 37° Northeast 158 182 5,000  Level New York TRACON
11:52PM 40.3167 -74.8667 49° Northeast 162 186 5,000  Level New York TRACON
11:53PM 40.3500 -74.8333 37° Northeast 160 184 5,000  Level New York TRACON
11:54PM 40.3833 -74.8000 37° Northeast 160 184 5,000 -360 Level New York TRACON
11:55PM 40.4167 -74.7500 49° Northeast 176 203 4,300 -720 Descending New York TRACON
11:56PM 40.4500 -74.7000 49° Northeast 175 201 3,500 -660 Descending New York TRACON
11:57PM 40.4833 -74.6667 37° Northeast 175 201 3,000 -300 Descending New York TRACON
11:58PM 40.5167 -74.6167 49° Northeast 161 185 3,000  Level New York TRACON
11:59PM 40.5500 -74.5833 37° Northeast 158 182 3,000 -180 Level New York TRACON
12:00AM 40.6000 -74.5333 37° Northeast 168 193 2,600 -420 Descending New York TRACON
12:01AM 40.6333 -74.5000 37° Northeast 175 201 2,200 -360 Descending New York TRACON
12:02AM 40.6667 -74.4500 49° Northeast 163 188 2,000 -120 Descending New York TRACON
12:03AM 40.7000 -74.4167 37° Northeast 154 177 2,000  Level New York TRACON
12:04AM 40.7167 -74.3667 66° East 150 173 2,000  Level New York TRACON
12:05AM 40.7167 -74.3167 90° East 142 163 2,000 -360 Level New York TRACON
12:06AM 40.7000 -74.2667 114° Southeast 154 177 1,300 -780 Descending New York TRACON
12:07AM 40.7000 -74.2167 90° East 158 182 600 -780 Descending New York TRACON